createdAt,value
2023-03-20T00:02:25.791Z,99207.41
2023-03-20T00:04:54.540Z,99222.69
2023-03-20T00:07:22.876Z,99219.88
2023-03-20T00:09:51.966Z,99223.41
2023-03-20T00:12:24.811Z,99219.81
2023-03-20T00:14:53.455Z,99221.81
2023-03-20T00:17:22.610Z,99231.72
2023-03-20T00:19:51.365Z,99228.91
2023-03-20T00:22:19.666Z,99238.06
2023-03-20T00:24:48.460Z,99241.81
2023-03-20T00:27:19.005Z,99246.91
2023-03-20T00:29:47.504Z,99244.84
2023-03-20T00:32:16.444Z,99244.28
2023-03-20T00:34:44.968Z,99247.81
2023-03-20T00:37:13.571Z,99255.13
2023-03-20T00:39:43.173Z,99259.22
2023-03-20T00:42:23.202Z,99256.13
2023-03-20T00:44:57.000Z,99258.13
2023-03-20T00:47:26.796Z,99259.34
2023-03-20T00:49:56.826Z,99263.88
2023-03-20T00:52:25.863Z,99268.94
2023-03-20T00:54:54.238Z,99269.69
2023-03-20T00:57:48.578Z,99279.06
2023-03-20T01:00:46.931Z,99280.22
2023-03-20T01:03:21.603Z,99280.66
2023-03-20T01:05:51.197Z,99291.31
2023-03-20T01:08:25.816Z,99285.88
2023-03-20T01:10:59.687Z,99290.94
2023-03-20T01:13:31.265Z,99301.81
2023-03-20T01:16:00.564Z,99299.72
2023-03-20T01:18:29.369Z,99299.66
2023-03-20T01:20:57.652Z,99307.75
2023-03-20T01:23:27.575Z,99308.44
2023-03-20T01:25:55.944Z,99315.00
2023-03-20T01:28:25.728Z,99316.94
2023-03-20T01:30:54.156Z,99317.53
2023-03-20T01:33:25.066Z,99324.06
2023-03-20T01:35:53.779Z,99321.09
2023-03-20T01:38:25.400Z,99323.47
2023-03-20T01:41:00.314Z,99331.97
2023-03-20T01:43:30.097Z,99323.31
2023-03-20T01:46:10.708Z,99336.97
2023-03-20T01:48:54.523Z,99341.88
2023-03-20T01:51:25.255Z,99339.44
2023-03-20T01:54:00.427Z,99335.97
2023-03-20T01:56:31.921Z,99347.38
2023-03-20T01:59:07.931Z,99340.88
2023-03-20T02:01:38.292Z,99338.75
2023-03-20T02:04:07.903Z,99345.81
2023-03-20T02:06:38.287Z,99334.22
2023-03-20T02:09:06.649Z,99341.28
2023-03-20T02:11:36.347Z,99348.91
2023-03-20T02:14:06.329Z,99341.63
2023-03-20T02:16:34.721Z,99344.88
2023-03-20T02:19:03.800Z,99341.41
2023-03-20T02:22:08.943Z,99344.88
2023-03-20T02:24:37.244Z,99340.88
2023-03-20T02:27:05.531Z,99343.59
2023-03-20T02:30:10.865Z,99343.72
2023-03-20T02:33:02.619Z,99346.84
2023-03-20T02:35:58.724Z,99348.25
2023-03-20T02:38:35.716Z,99347.59
2023-03-20T02:41:16.784Z,99345.63
2023-03-20T02:43:57.174Z,99344.97
2023-03-20T02:46:47.388Z,99332.22
2023-03-20T02:49:24.563Z,99339.28
2023-03-20T02:52:18.213Z,99347.84
2023-03-20T02:55:03.470Z,99341.75
2023-03-20T02:57:44.075Z,99345.63
2023-03-20T03:00:27.560Z,99348.50
2023-03-20T03:03:18.576Z,99348.06
2023-03-20T03:05:55.484Z,99344.75
2023-03-20T03:08:29.603Z,99349.16
2023-03-20T03:11:05.329Z,99341.53
2023-03-20T03:13:39.000Z,99335.94
2023-03-20T03:16:39.431Z,99334.88
2023-03-20T03:19:16.700Z,99337.97
2023-03-20T03:21:46.786Z,99331.59
2023-03-20T03:24:41.152Z,99324.13
2023-03-20T03:27:19.197Z,99318.53
2023-03-20T03:29:52.438Z,99318.03
2023-03-20T03:32:44.802Z,99321.66
2023-03-20T03:35:18.751Z,99314.88
2023-03-20T03:38:19.278Z,99310.22
2023-03-20T03:41:00.424Z,99304.59
2023-03-20T03:43:44.234Z,99296.34
2023-03-20T03:46:24.505Z,99298.44
2023-03-20T03:48:57.743Z,99302.25
2023-03-20T03:51:30.597Z,99299.44
2023-03-20T03:54:07.896Z,99299.66
2023-03-20T03:56:39.908Z,99301.75
2023-03-20T03:59:32.222Z,99293.25
2023-03-20T04:02:02.391Z,99284.03
2023-03-20T04:04:34.029Z,99286.28
2023-03-20T04:07:02.723Z,99276.25
2023-03-20T04:09:31.331Z,99274.75
2023-03-20T04:11:59.689Z,99271.16
2023-03-20T04:14:28.394Z,99263.41
2023-03-20T04:16:56.669Z,99256.94
2023-03-20T04:19:24.959Z,99249.00
2023-03-20T04:21:53.271Z,99252.63
2023-03-20T04:24:21.577Z,99244.81
2023-03-20T04:26:49.952Z,99230.59
2023-03-20T04:29:18.374Z,99222.63
2023-03-20T04:31:46.993Z,99223.53
2023-03-20T04:34:15.419Z,99218.03
2023-03-20T04:36:43.729Z,99213.28
2023-03-20T04:39:12.243Z,99206.97
2023-03-20T04:41:40.685Z,99207.84
2023-03-20T04:44:09.108Z,99205.31
2023-03-20T04:46:37.411Z,99197.69
2023-03-20T04:49:05.730Z,99182.66
2023-03-20T04:51:34.076Z,99184.31
2023-03-20T04:54:02.351Z,99173.03
2023-03-20T04:56:30.652Z,99171.78
2023-03-20T04:58:58.948Z,99159.03
2023-03-20T05:01:27.280Z,99154.78
2023-03-20T05:04:01.561Z,99154.72
2023-03-20T05:06:31.192Z,99145.03
2023-03-20T05:09:00.511Z,99141.41
2023-03-20T05:11:30.013Z,99134.78
2023-03-20T05:13:58.327Z,99135.63
2023-03-20T05:16:26.990Z,99132.63
2023-03-20T05:18:55.346Z,99125.75
2023-03-20T05:21:23.664Z,99118.16
2023-03-20T05:23:52.241Z,99110.78
2023-03-20T05:26:20.529Z,99109.28
2023-03-20T05:28:50.984Z,99101.06
2023-03-20T05:31:19.340Z,99097.56
2023-03-20T05:33:47.638Z,99084.59
2023-03-20T05:36:15.949Z,99071.03
2023-03-20T05:38:44.554Z,99068.22
2023-03-20T05:41:12.857Z,99071.19
2023-03-20T05:43:41.157Z,99068.41
2023-03-20T05:46:09.650Z,99051.19
2023-03-20T05:48:38.034Z,99043.16
2023-03-20T05:51:07.239Z,99039.28
2023-03-20T05:53:35.629Z,99038.84
2023-03-20T05:56:04.289Z,99024.91
2023-03-20T05:58:32.860Z,99021.03
2023-03-20T06:01:01.534Z,98997.81
2023-03-20T06:03:29.973Z,99002.22
2023-03-20T06:05:58.640Z,98993.22
2023-03-20T06:08:27.086Z,98989.69
2023-03-20T06:10:55.512Z,98986.81
2023-03-20T06:13:23.983Z,98976.94
2023-03-20T06:15:52.297Z,98971.69
2023-03-20T06:18:20.932Z,98964.03
2023-03-20T06:20:54.711Z,98950.69
2023-03-20T06:23:23.151Z,98946.97
2023-03-20T06:25:51.707Z,98936.84
2023-03-20T06:28:20.423Z,98935.91
2023-03-20T06:30:48.787Z,98921.66
2023-03-20T06:33:17.292Z,98924.84
2023-03-20T06:35:47.713Z,98916.59
2023-03-20T06:38:16.242Z,98914.94
2023-03-20T06:40:46.113Z,98910.09
2023-03-20T06:43:14.413Z,98906.19
2023-03-20T06:45:42.922Z,98904.69
2023-03-20T06:48:12.188Z,98901.97
2023-03-20T06:50:40.469Z,98887.72
2023-03-20T06:53:08.756Z,98892.34
2023-03-20T06:55:38.487Z,98881.81
2023-03-20T06:58:06.923Z,98876.75
2023-03-20T07:00:35.440Z,98876.03
2023-03-20T07:03:04.653Z,98870.50
2023-03-20T07:05:33.776Z,98865.31
2023-03-20T07:08:02.329Z,98863.38
2023-03-20T07:10:30.640Z,98856.75
2023-03-20T07:12:59.001Z,98863.53
2023-03-20T07:15:28.264Z,98854.84
2023-03-20T07:17:56.905Z,98849.41
2023-03-20T07:20:25.464Z,98847.94
2023-03-20T07:22:53.824Z,98838.88
2023-03-20T07:25:35.400Z,98843.38
2023-03-20T07:28:03.960Z,98833.31
2023-03-20T07:30:33.428Z,98827.78
2023-03-20T07:33:01.749Z,98815.19
2023-03-20T07:35:30.315Z,98811.34
2023-03-20T07:37:58.612Z,98805.81
2023-03-20T07:40:27.183Z,98802.34
2023-03-20T07:42:55.579Z,98795.31
2023-03-20T07:45:24.172Z,98791.25
2023-03-20T07:47:52.509Z,98792.00
2023-03-20T07:50:20.932Z,98784.06
2023-03-20T07:52:50.380Z,98781.94
2023-03-20T07:55:19.381Z,98775.81
2023-03-20T07:57:50.666Z,98774.72
2023-03-20T08:00:20.130Z,98773.53
2023-03-20T08:02:48.653Z,98776.66
2023-03-20T08:05:17.811Z,98774.72
2023-03-20T08:07:47.142Z,98767.06
2023-03-20T08:10:15.600Z,98764.50
2023-03-20T08:12:44.402Z,98760.31
2023-03-20T08:15:13.052Z,98755.81
2023-03-20T08:17:45.612Z,98753.59
2023-03-20T08:20:15.850Z,98744.44
2023-03-20T08:22:46.246Z,98752.53
2023-03-20T08:25:15.377Z,98749.09
2023-03-20T08:27:43.882Z,98743.53
2023-03-20T08:30:14.014Z,98741.59
2023-03-20T08:32:43.038Z,98742.19
2023-03-20T08:35:25.784Z,98739.03
2023-03-20T08:38:00.445Z,98734.25
2023-03-20T08:40:29.094Z,98731.25
2023-03-20T08:42:57.614Z,98736.06
2023-03-20T08:45:27.156Z,98725.28
2023-03-20T08:47:56.017Z,98723.00
2023-03-20T08:50:24.545Z,98731.53
2023-03-20T08:52:52.937Z,98728.38
2023-03-20T08:55:21.430Z,98730.50
2023-03-20T08:57:49.890Z,98723.28
2023-03-20T09:00:20.159Z,98721.03
2023-03-20T09:02:48.574Z,98727.63
2023-03-20T09:05:17.062Z,98722.53
2023-03-20T09:07:45.882Z,98717.59
2023-03-20T09:10:14.359Z,98716.84
2023-03-20T09:12:42.688Z,98719.56
2023-03-20T09:15:11.629Z,98722.41
2023-03-20T09:17:40.122Z,98725.09
2023-03-20T09:20:09.271Z,98723.59
2023-03-20T09:22:37.643Z,98724.66
2023-03-20T09:25:07.181Z,98721.06
2023-03-20T09:27:35.557Z,98718.81
2023-03-20T09:30:03.876Z,98715.81
2023-03-20T09:32:32.182Z,98723.09
2023-03-20T09:35:00.613Z,98734.03
2023-03-20T09:37:29.256Z,98731.31
2023-03-20T09:39:57.811Z,98737.91
2023-03-20T09:42:50.878Z,98736.50
2023-03-20T09:45:38.650Z,98733.34
2023-03-20T09:48:09.753Z,98732.44
2023-03-20T09:50:41.285Z,98729.28
2023-03-20T09:53:43.642Z,98733.16
2023-03-20T09:56:22.900Z,98725.66
2023-03-20T09:59:00.245Z,98713.38
2023-03-20T10:01:34.743Z,98718.72
2023-03-20T10:04:13.558Z,98716.16
2023-03-20T10:06:42.220Z,98715.69
2023-03-20T10:09:32.764Z,98715.06
2023-03-20T10:12:05.008Z,98712.47
2023-03-20T10:14:39.048Z,98720.38
2023-03-20T10:17:16.378Z,98719.13
2023-03-20T10:19:57.428Z,98725.66
2023-03-20T10:22:34.306Z,98725.75
2023-03-20T10:25:14.566Z,98723.94
2023-03-20T10:28:01.873Z,98723.63
2023-03-20T10:31:07.430Z,98725.22
2023-03-20T10:33:53.959Z,98718.31
2023-03-20T10:36:22.614Z,98735.00
2023-03-20T10:38:50.875Z,98730.50
2023-03-20T10:41:23.246Z,98740.03
2023-03-20T10:43:54.095Z,98732.66
2023-03-20T10:46:30.684Z,98734.41
2023-03-20T10:49:09.712Z,98739.59
2023-03-20T10:51:49.362Z,98741.16
2023-03-20T10:54:30.250Z,98742.59
2023-03-20T10:57:01.849Z,98739.25
2023-03-20T10:59:36.364Z,98745.00
2023-03-20T11:02:15.758Z,98743.72
2023-03-20T11:04:44.596Z,98750.03
2023-03-20T11:07:49.155Z,98749.94
2023-03-20T11:10:18.264Z,98747.00
2023-03-20T11:12:49.219Z,98744.81
2023-03-20T11:15:23.953Z,98743.38
2023-03-20T11:17:56.996Z,98751.16
2023-03-20T11:20:27.153Z,98750.44
2023-03-20T11:23:05.877Z,98743.34
2023-03-20T11:25:40.829Z,98759.63
2023-03-20T11:28:23.038Z,98755.34
2023-03-20T11:31:04.625Z,98748.41
2023-03-20T11:33:38.827Z,98761.84
2023-03-20T11:36:14.274Z,98759.78
2023-03-20T11:38:47.462Z,98757.72
2023-03-20T11:41:23.831Z,98763.44
2023-03-20T11:43:52.246Z,98764.97
2023-03-20T11:46:26.291Z,98762.72
2023-03-20T11:49:08.417Z,98765.78
2023-03-20T11:51:39.105Z,98782.97
2023-03-20T11:54:15.927Z,98786.59
2023-03-20T11:56:58.332Z,98777.53
2023-03-20T11:59:37.031Z,98780.34
2023-03-20T12:02:20.564Z,98774.13
2023-03-20T12:04:48.944Z,98781.91
2023-03-20T12:07:29.168Z,98782.06
2023-03-20T12:10:08.305Z,98782.09
2023-03-20T12:12:48.739Z,98782.84
2023-03-20T12:15:35.236Z,98786.63
2023-03-20T12:18:34.070Z,98793.22
2023-03-20T12:21:12.503Z,98799.59
2023-03-20T12:23:54.435Z,98801.84
2023-03-20T12:27:00.107Z,98804.69
2023-03-20T12:29:44.809Z,98803.34
2023-03-20T12:32:33.753Z,98809.94
2023-03-20T12:35:18.962Z,98812.38
2023-03-20T12:37:47.426Z,98818.41
2023-03-20T12:40:22.864Z,98820.09
2023-03-20T12:43:06.885Z,98826.69
2023-03-20T12:45:44.721Z,98834.00
2023-03-20T12:48:36.624Z,98835.69
2023-03-20T12:51:08.967Z,98837.91
2023-03-20T12:53:46.061Z,98834.69
2023-03-20T12:56:25.550Z,98846.91
2023-03-20T12:59:05.634Z,98845.03
2023-03-20T13:01:56.667Z,98851.56
2023-03-20T13:04:42.912Z,98847.59
2023-03-20T13:07:25.091Z,98860.00
2023-03-20T13:10:10.176Z,98851.69
2023-03-20T13:12:53.356Z,98850.75
2023-03-20T13:15:43.224Z,98858.06
2023-03-20T13:18:21.440Z,98871.00
2023-03-20T13:21:05.110Z,98871.94
2023-03-20T13:23:52.967Z,98876.97
2023-03-20T13:26:39.840Z,98879.94
2023-03-20T13:29:08.126Z,98890.06
2023-03-20T13:31:45.427Z,98900.16
2023-03-20T13:34:54.364Z,98901.06
2023-03-20T13:37:34.354Z,98904.06
2023-03-20T13:40:02.637Z,98914.19
2023-03-20T13:42:39.109Z,98919.41
2023-03-20T13:45:23.606Z,98929.34
2023-03-20T13:47:53.784Z,98935.84
2023-03-20T13:50:53.650Z,98927.53
2023-03-20T13:53:31.583Z,98939.16
2023-03-20T13:56:26.207Z,98948.72
2023-03-20T13:59:04.628Z,98948.81
2023-03-20T14:01:44.266Z,98956.88
2023-03-20T14:04:20.048Z,98947.97
2023-03-20T14:06:58.830Z,98952.44
2023-03-20T14:09:33.819Z,98962.75
2023-03-20T14:12:12.104Z,98962.53
2023-03-20T14:14:51.148Z,98960.81
2023-03-20T14:17:24.860Z,98972.44
2023-03-20T14:19:55.330Z,98979.72
2023-03-20T14:22:35.741Z,98979.28
2023-03-20T14:25:18.648Z,98984.69
2023-03-20T14:28:14.537Z,98982.22
2023-03-20T14:30:53.897Z,98987.84
2023-03-20T14:33:23.516Z,98989.91
2023-03-20T14:36:12.155Z,98982.56
2023-03-20T14:39:03.783Z,98992.31
2023-03-20T14:41:55.797Z,98999.81
2023-03-20T14:44:26.728Z,98996.00
2023-03-20T14:46:54.972Z,99000.69
2023-03-20T14:49:37.742Z,99001.56
2023-03-20T14:52:34.865Z,99009.56
2023-03-20T14:55:21.798Z,99000.66
2023-03-20T14:57:56.637Z,99004.56
2023-03-20T15:00:29.471Z,99002.28
2023-03-20T15:03:12.810Z,99007.69
2023-03-20T15:05:41.950Z,99007.50
2023-03-20T15:08:16.900Z,99012.38
2023-03-20T15:10:54.535Z,99016.28
2023-03-20T15:13:25.666Z,99014.53
2023-03-20T15:16:05.586Z,99015.63
2023-03-20T15:18:39.378Z,99021.81
2023-03-20T15:21:19.604Z,99030.03
2023-03-20T15:23:49.368Z,99036.22
2023-03-20T15:26:21.149Z,99035.41
2023-03-20T15:28:50.393Z,99035.97
2023-03-20T15:31:39.993Z,99040.63
2023-03-20T15:34:14.319Z,99044.72
2023-03-20T15:36:42.772Z,99043.53
2023-03-20T15:39:20.926Z,99046.16
2023-03-20T15:41:54.121Z,99045.16
2023-03-20T15:44:24.062Z,99053.19
2023-03-20T15:46:56.547Z,99051.44
2023-03-20T15:49:26.053Z,99042.03
2023-03-20T15:51:57.232Z,99048.19
2023-03-20T15:54:26.194Z,99050.75
2023-03-20T15:56:58.499Z,99057.69
2023-03-20T15:59:31.461Z,99057.47
2023-03-20T16:02:02.019Z,99061.59
2023-03-20T16:04:30.535Z,99057.22
2023-03-20T16:07:01.700Z,99047.25
2023-03-20T16:09:30.661Z,99050.63
2023-03-20T16:12:00.354Z,99046.81
2023-03-20T16:14:32.586Z,99045.84
2023-03-20T16:17:04.671Z,99050.50
2023-03-20T16:19:33.130Z,99048.00
2023-03-20T16:22:11.275Z,99047.78
2023-03-20T16:24:41.678Z,99044.22
2023-03-20T16:27:11.744Z,99047.03
2023-03-20T16:29:44.900Z,99046.25
2023-03-20T16:32:33.968Z,99046.25
2023-03-20T16:35:07.461Z,99043.22
2023-03-20T16:37:44.701Z,99040.69
2023-03-20T16:40:19.902Z,99031.81
2023-03-20T16:42:48.844Z,99036.47
2023-03-20T16:45:26.891Z,99041.88
2023-03-20T16:48:12.185Z,99035.28
2023-03-20T16:50:42.913Z,99035.03
2023-03-20T16:53:18.272Z,99036.34
2023-03-20T16:55:52.633Z,99031.25
2023-03-20T16:58:28.673Z,99037.19
2023-03-20T17:01:07.248Z,99044.44
2023-03-20T17:03:49.166Z,99041.16
2023-03-20T17:06:21.750Z,99043.50
2023-03-20T17:08:55.769Z,99044.59
2023-03-20T17:11:38.917Z,99040.03
2023-03-20T17:14:07.564Z,99032.63
2023-03-20T17:16:37.510Z,99026.56
2023-03-20T17:19:11.980Z,99025.59
2023-03-20T17:21:40.421Z,99022.31
2023-03-20T17:24:08.958Z,99014.44
2023-03-20T17:26:37.358Z,99011.38
2023-03-20T17:29:06.834Z,99018.81
2023-03-20T17:31:35.178Z,99006.59
2023-03-20T17:34:03.596Z,99010.69
2023-03-20T17:36:34.745Z,99004.31
2023-03-20T17:39:03.391Z,99009.16
2023-03-20T17:41:31.764Z,99004.31
2023-03-20T17:44:00.099Z,99002.78
2023-03-20T17:46:36.082Z,98987.75
2023-03-20T17:49:16.926Z,98989.03
2023-03-20T17:51:45.403Z,98991.63
2023-03-20T17:54:13.704Z,98994.97
2023-03-20T17:56:43.189Z,98992.69
2023-03-20T17:59:15.307Z,98994.00
2023-03-20T18:01:44.068Z,98982.53
2023-03-20T18:04:12.480Z,98978.72
2023-03-20T18:06:40.859Z,98989.00
2023-03-20T18:09:14.247Z,98985.16
2023-03-20T18:11:42.642Z,98979.84
2023-03-20T18:14:13.159Z,98974.00
2023-03-20T18:16:41.670Z,98969.47
2023-03-20T18:19:30.801Z,98960.03
2023-03-20T18:21:59.957Z,98962.63
2023-03-20T18:24:28.720Z,98956.25
2023-03-20T18:26:57.582Z,98951.94
2023-03-20T18:29:26.126Z,98958.84
2023-03-20T18:31:54.830Z,98941.22
2023-03-20T18:34:23.122Z,98940.47
2023-03-20T18:36:52.106Z,98944.56
2023-03-20T18:39:23.197Z,98944.56
2023-03-20T18:41:51.982Z,98943.81
2023-03-20T18:44:20.291Z,98948.13
2023-03-20T18:46:48.747Z,98938.94
2023-03-20T18:49:18.732Z,98940.25
2023-03-20T18:51:47.927Z,98932.56
2023-03-20T18:54:16.363Z,98926.19
2023-03-20T18:56:44.730Z,98924.69
2023-03-20T18:59:14.236Z,98930.06
2023-03-20T19:01:42.659Z,98924.97
2023-03-20T19:04:11.176Z,98921.94
2023-03-20T19:06:39.627Z,98925.53
2023-03-20T19:09:09.106Z,98931.16
2023-03-20T19:11:37.410Z,98923.03
2023-03-20T19:14:05.741Z,98920.00
2023-03-20T19:16:38.789Z,98920.53
2023-03-20T19:19:08.845Z,98916.22
2023-03-20T19:21:37.703Z,98914.16
2023-03-20T19:24:07.675Z,98917.72
2023-03-20T19:26:38.309Z,98916.44
2023-03-20T19:29:09.400Z,98917.19
2023-03-20T19:31:38.407Z,98915.91
2023-03-20T19:34:07.612Z,98911.81
2023-03-20T19:36:38.585Z,98908.47
2023-03-20T19:39:12.135Z,98911.50
2023-03-20T19:41:40.572Z,98908.16
2023-03-20T19:44:09.467Z,98907.63
2023-03-20T19:46:41.097Z,98902.78
2023-03-20T19:49:20.765Z,98896.38
2023-03-20T19:51:50.684Z,98898.22
2023-03-20T19:54:19.069Z,98890.84
2023-03-20T19:56:47.501Z,98891.94
2023-03-20T19:59:16.861Z,98887.38
2023-03-20T20:01:46.500Z,98889.97
2023-03-20T20:04:15.791Z,98888.44
2023-03-20T20:06:47.266Z,98888.22
2023-03-20T20:09:16.241Z,98890.78
2023-03-20T20:11:45.033Z,98899.00
2023-03-20T20:14:14.852Z,98893.91
2023-03-20T20:16:44.183Z,98905.44
2023-03-20T20:19:13.278Z,98899.34
2023-03-20T20:24:30.120Z,98898.66
2023-03-20T20:27:26.895Z,98893.34
2023-03-20T20:29:52.167Z,98904.34
2023-03-20T20:32:23.895Z,98902.84
2023-03-20T20:40:33.340Z,98914.06
2023-03-20T20:43:02.925Z,98925.06
2023-03-20T20:45:32.438Z,98920.75
2023-03-20T20:48:00.908Z,98908.00
2023-03-20T20:50:31.647Z,98907.25
2023-03-20T20:53:00.446Z,98911.09
2023-03-20T20:55:28.803Z,98907.31
2023-03-20T20:57:57.457Z,98923.38
2023-03-20T21:00:41.020Z,98919.03
2023-03-20T21:03:15.471Z,98921.09
2023-03-20T21:05:44.305Z,98917.53
2023-03-20T21:08:14.889Z,98904.00
2023-03-20T21:10:45.533Z,98910.16
2023-03-20T21:13:14.076Z,98929.03
2023-03-20T21:15:44.185Z,98930.09
2023-03-20T21:18:12.650Z,98925.75
2023-03-20T21:20:41.036Z,98924.22
2023-03-20T21:23:09.357Z,98925.28
2023-03-20T21:25:42.074Z,98923.00
2023-03-20T21:28:11.682Z,98931.72
2023-03-20T21:30:59.984Z,98929.97
2023-03-20T21:33:33.157Z,98942.25
2023-03-20T21:36:01.623Z,98933.59
2023-03-20T21:39:01.913Z,98927.72
2023-03-20T21:41:19.084Z,98924.69
2023-03-20T21:43:48.323Z,98934.16
2023-03-20T22:01:23.152Z,98960.03
2023-03-20T22:30:12.372Z,98991.72
2023-03-20T22:41:43.129Z,98997.91
2023-03-20T22:46:44.766Z,99014.50
2023-03-20T22:49:10.790Z,99010.69
2023-03-20T22:51:52.243Z,99022.66
2023-03-20T22:54:27.508Z,99023.94
2023-03-20T22:56:56.451Z,99023.19
2023-03-20T22:59:24.832Z,99020.16
2023-03-20T23:01:53.156Z,99013.53
2023-03-20T23:04:21.717Z,99024.00
2023-03-20T23:06:50.114Z,99021.94
2023-03-20T23:09:18.844Z,99036.47
2023-03-20T23:11:47.223Z,99026.78
2023-03-20T23:14:21.335Z,99035.19
2023-03-20T23:16:51.790Z,99045.38
2023-03-20T23:19:20.272Z,99041.06
2023-03-20T23:21:48.678Z,99041.59
2023-03-20T23:24:17.892Z,99050.00
2023-03-20T23:26:46.354Z,99056.13
2023-03-20T23:29:14.746Z,99061.72
2023-03-20T23:31:43.121Z,99063.50
2023-03-20T23:34:11.602Z,99064.00
2023-03-20T23:36:40.083Z,99063.25
2023-03-20T23:39:10.485Z,99072.44
2023-03-20T23:44:28.310Z,99069.63
2023-03-20T23:46:56.718Z,99081.84
2023-03-20T23:49:25.242Z,99087.19
2023-03-20T23:51:54.075Z,99090.75
2023-03-20T23:54:22.619Z,99098.16
2023-03-20T23:56:50.972Z,99105.75
2023-03-20T23:59:22.485Z,99106.00
